createdAt,value
2018-01-03T00:00:17.961Z,76.37
2018-01-03T00:02:47.458Z,76.54
2018-01-03T00:05:16.623Z,77.36
2018-01-03T00:07:45.858Z,77.00
2018-01-03T00:10:16.375Z,76.66
2018-01-03T00:12:45.888Z,76.62
2018-01-03T00:15:14.993Z,76.85
2018-01-03T00:17:44.111Z,77.50
2018-01-03T00:20:16.001Z,77.51
2018-01-03T00:22:45.094Z,77.72
2018-01-03T00:25:14.178Z,77.60
2018-01-03T00:27:43.540Z,77.34
2018-01-03T00:30:14.801Z,77.58
2018-01-03T00:32:43.909Z,78.08
2018-01-03T00:35:13.029Z,77.75
2018-01-03T00:37:42.423Z,77.85
2018-01-03T00:40:11.616Z,78.96
2018-01-03T00:42:40.802Z,78.72
2018-01-03T00:45:10.339Z,78.42
2018-01-03T00:47:39.458Z,78.12
2018-01-03T00:50:09.636Z,78.79
2018-01-03T00:52:38.851Z,78.80
2018-01-03T00:55:08.261Z,78.72
2018-01-03T00:57:38.254Z,78.87
2018-01-03T01:00:11.095Z,79.32
2018-01-03T01:02:40.240Z,79.27
2018-01-03T01:05:09.682Z,79.70
2018-01-03T01:07:38.814Z,78.98
2018-01-03T01:10:08.069Z,79.33
2018-01-03T01:12:37.261Z,79.86
2018-01-03T01:15:06.787Z,79.52
2018-01-03T01:17:35.906Z,79.61
2018-01-03T01:20:08.919Z,79.51
2018-01-03T01:22:38.371Z,79.63
2018-01-03T01:25:07.497Z,80.54
2018-01-03T01:27:36.621Z,81.07
2018-01-03T01:30:09.352Z,81.61
2018-01-03T01:32:38.585Z,81.80
2018-01-03T01:35:07.835Z,81.41
2018-01-03T01:37:37.329Z,81.80
2018-01-03T01:40:08.435Z,82.00
2018-01-03T01:42:38.668Z,82.12
2018-01-03T01:45:07.829Z,82.34
2018-01-03T01:47:37.149Z,82.01
2018-01-03T01:50:08.831Z,82.20
2018-01-03T01:52:38.958Z,82.38
2018-01-03T01:55:08.078Z,83.05
2018-01-03T01:57:37.217Z,83.63
2018-01-03T02:00:08.235Z,83.97
2018-01-03T02:02:37.385Z,83.63
2018-01-03T02:05:06.538Z,83.11
2018-01-03T02:07:51.627Z,82.97
2018-01-03T02:10:25.156Z,83.00
2018-01-03T02:12:54.494Z,83.23
2018-01-03T02:15:23.889Z,82.92
2018-01-03T02:17:52.983Z,82.35
2018-01-03T02:20:22.326Z,81.93
2018-01-03T02:22:51.705Z,81.67
2018-01-03T02:25:20.917Z,81.69
2018-01-03T02:27:50.067Z,81.82
2018-01-03T02:31:22.054Z,82.30
2018-01-03T02:33:51.157Z,82.21
2018-01-03T02:36:20.662Z,82.27
2018-01-03T02:38:49.782Z,82.23
2018-01-03T02:41:18.888Z,81.77
2018-01-03T02:43:48.039Z,81.75
2018-01-03T02:46:20.581Z,81.24
2018-01-03T02:48:49.679Z,81.45
2018-01-03T02:51:18.790Z,81.70
2018-01-03T02:53:47.989Z,81.54
2018-01-03T02:56:19.290Z,81.54
2018-01-03T02:58:48.403Z,81.18
2018-01-03T03:01:17.689Z,81.38
2018-01-03T03:03:46.923Z,81.47
2018-01-03T03:06:17.753Z,81.40
2018-01-03T03:08:46.915Z,81.49
2018-01-03T03:11:16.030Z,81.71
2018-01-03T03:13:45.162Z,81.59
2018-01-03T03:16:17.554Z,81.68
2018-01-03T03:18:46.654Z,81.97
2018-01-03T03:21:16.128Z,82.30
2018-01-03T03:23:45.208Z,82.60
2018-01-03T03:26:16.188Z,82.63
2018-01-03T03:28:45.774Z,82.77
2018-01-03T03:31:15.155Z,83.40
2018-01-03T03:33:44.238Z,83.68
2018-01-03T03:36:16.351Z,84.37
2018-01-03T03:38:46.363Z,84.68
2018-01-03T03:41:15.732Z,84.85
2018-01-03T03:43:44.806Z,84.79
2018-01-03T03:46:15.424Z,84.93
2018-01-03T03:48:44.485Z,84.99
2018-01-03T03:51:13.881Z,85.74
2018-01-03T03:53:43.275Z,85.53
2018-01-03T03:56:14.415Z,85.60
2018-01-03T03:58:43.485Z,85.92
2018-01-03T04:01:12.938Z,86.34
2018-01-03T04:03:42.000Z,86.20
2018-01-03T04:06:15.201Z,86.04
2018-01-03T04:08:44.546Z,86.12
2018-01-03T04:11:13.618Z,86.37
2018-01-03T04:13:42.730Z,86.38
2018-01-03T04:16:13.255Z,86.66
2018-01-03T04:18:42.412Z,87.03
2018-01-03T04:21:11.546Z,87.43
2018-01-03T04:23:40.916Z,87.60
2018-01-03T04:26:11.173Z,87.90
2018-01-03T04:28:40.583Z,88.02
2018-01-03T04:31:09.951Z,87.68
2018-01-03T04:33:39.010Z,87.35
2018-01-03T04:36:09.608Z,87.58
2018-01-03T04:38:38.674Z,87.58
2018-01-03T04:41:07.754Z,87.64
2018-01-03T04:43:36.821Z,88.00
2018-01-03T04:46:08.226Z,88.09
2018-01-03T04:48:37.609Z,88.35
2018-01-03T04:51:06.671Z,88.68
2018-01-03T04:53:35.717Z,89.31
2018-01-03T04:56:07.959Z,89.77
2018-01-03T05:01:08.835Z,89.92
2018-01-03T05:03:38.406Z,90.00
2018-01-03T05:06:08.299Z,89.77
2018-01-03T05:08:37.378Z,89.75
2018-01-03T05:11:06.450Z,89.82
2018-01-03T05:13:35.533Z,89.73
2018-01-03T05:16:07.978Z,89.69
2018-01-03T05:18:37.343Z,89.94
2018-01-03T05:21:06.491Z,90.05
2018-01-03T05:23:35.958Z,90.05
2018-01-03T05:26:07.726Z,90.12
2018-01-03T05:28:37.142Z,90.02
2018-01-03T05:31:06.206Z,89.92
2018-01-03T05:33:35.262Z,89.60
2018-01-03T05:36:07.040Z,89.54
2018-01-03T05:38:36.088Z,89.41
2018-01-03T05:41:05.351Z,89.33
2018-01-03T05:43:34.938Z,89.09
2018-01-03T05:46:08.019Z,89.04
2018-01-03T05:48:37.112Z,89.00
2018-01-03T05:51:06.195Z,89.06
2018-01-03T05:53:35.307Z,89.53
2018-01-03T05:56:06.440Z,90.20
2018-01-03T05:58:35.531Z,91.57
2018-01-03T06:01:04.875Z,92.94
2018-01-03T06:03:34.470Z,93.71
2018-01-03T06:06:06.455Z,94.09
2018-01-03T06:10:58.698Z,94.89
2018-01-03T06:13:28.458Z,95.26
2018-01-03T06:15:57.544Z,95.71
2018-01-03T06:18:26.633Z,96.09
2018-01-03T06:20:56.366Z,96.45
2018-01-03T06:23:25.814Z,96.56
2018-01-03T06:25:55.375Z,96.61
2018-01-03T06:28:24.522Z,96.50
2018-01-03T06:30:53.909Z,96.44
2018-01-03T06:33:23.764Z,96.22
2018-01-03T06:35:52.868Z,94.93
2018-01-03T06:38:22.647Z,93.07
2018-01-03T06:40:51.751Z,93.50
2018-01-03T06:43:20.942Z,93.75
2018-01-03T06:45:50.114Z,93.80
2018-01-03T06:48:20.985Z,94.15
2018-01-03T06:50:50.074Z,94.21
2018-01-03T06:53:19.342Z,94.14
2018-01-03T06:55:49.866Z,93.45
2018-01-03T06:58:19.309Z,92.83
2018-01-03T07:00:48.403Z,93.06
2018-01-03T07:03:17.778Z,92.38
2018-01-03T07:09:18.534Z,93.32
2018-01-03T07:11:47.611Z,92.90
2018-01-03T07:14:19.030Z,93.08
2018-01-03T07:16:48.121Z,93.35
2018-01-03T07:19:17.183Z,93.70
2018-01-03T07:21:47.276Z,94.01
2018-01-03T07:24:16.465Z,93.92
2018-01-03T07:26:45.880Z,93.92
2018-01-03T07:29:14.965Z,94.03
2018-01-03T07:31:44.042Z,93.92
2018-01-03T07:34:13.340Z,93.90
2018-01-03T07:36:42.721Z,93.76
2018-01-03T07:39:11.847Z,93.56
2018-01-03T07:41:40.958Z,93.25
2018-01-03T07:44:12.106Z,93.08
2018-01-03T07:46:41.191Z,92.15
2018-01-03T07:49:10.304Z,90.84
2018-01-03T07:51:39.378Z,90.44
2018-01-03T07:56:48.530Z,87.98
2018-01-03T07:59:17.639Z,86.55
2018-01-03T08:01:47.069Z,83.47
2018-01-03T08:04:16.240Z,83.70
2018-01-03T08:06:45.346Z,81.79
2018-01-03T08:09:14.721Z,81.58
2018-01-03T08:11:44.491Z,81.12
2018-01-03T08:14:14.251Z,80.71
2018-01-03T08:16:43.702Z,80.71
2018-01-03T08:19:12.838Z,80.21
2018-01-03T08:21:41.920Z,80.59
2018-01-03T08:24:14.832Z,80.37
2018-01-03T08:26:44.273Z,80.54
2018-01-03T08:29:13.367Z,80.68
2018-01-03T08:31:42.531Z,80.18
2018-01-03T08:34:12.547Z,80.10
2018-01-03T08:36:41.991Z,79.91
2018-01-03T08:39:11.095Z,80.63
2018-01-03T08:41:40.230Z,79.65
2018-01-03T08:44:10.324Z,79.50
2018-01-03T08:46:39.722Z,78.71
2018-01-03T08:49:08.836Z,75.55
2018-01-03T08:51:38.060Z,73.70
2018-01-03T08:54:14.811Z,72.46
2018-01-03T08:56:43.971Z,73.06
2018-01-03T08:59:13.208Z,70.50
2018-01-03T09:01:43.015Z,70.23
2018-01-03T09:04:17.863Z,67.76
2018-01-03T09:06:47.025Z,68.94
2018-01-03T09:09:16.160Z,69.36
2018-01-03T09:11:45.637Z,68.78
2018-01-03T09:14:15.265Z,66.84
2018-01-03T09:16:44.590Z,68.17
2018-01-03T09:19:13.703Z,68.55
2018-01-03T09:21:42.967Z,69.14
2018-01-03T09:24:15.452Z,69.79
2018-01-03T09:26:45.408Z,69.00
2018-01-03T09:29:14.811Z,67.76
2018-01-03T09:31:43.905Z,68.04
2018-01-03T09:34:13.905Z,67.22
2018-01-03T09:36:43.498Z,65.95
2018-01-03T09:39:12.594Z,65.13
2018-01-03T09:41:42.058Z,64.86
2018-01-03T09:44:13.082Z,65.59
2018-01-03T09:46:42.424Z,64.83
2018-01-03T09:49:11.597Z,64.77
2018-01-03T09:51:40.689Z,63.59
2018-01-03T09:54:10.301Z,64.40
2018-01-03T09:56:40.360Z,65.04
2018-01-03T09:59:09.541Z,64.81
2018-01-03T10:01:39.032Z,64.67
2018-01-03T10:04:08.741Z,65.24
2018-01-03T10:06:37.922Z,66.04
2018-01-03T10:09:07.128Z,66.11
2018-01-03T10:11:37.479Z,64.93
2018-01-03T10:14:07.667Z,65.26
2018-01-03T10:16:38.114Z,64.70
2018-01-03T10:19:07.611Z,64.74
2018-01-03T10:21:37.787Z,63.43
2018-01-03T10:24:08.472Z,64.22
2018-01-03T10:26:37.980Z,64.38
2018-01-03T10:29:07.130Z,60.33
2018-01-03T10:31:36.290Z,57.27
2018-01-03T10:34:09.758Z,57.75
2018-01-03T10:36:38.868Z,59.53
2018-01-03T10:39:07.970Z,58.56
2018-01-03T10:41:37.440Z,60.43
2018-01-03T10:44:08.314Z,60.35
2018-01-03T10:46:37.482Z,60.31
2018-01-03T10:49:06.917Z,55.79
2018-01-03T10:51:36.062Z,48.38
2018-01-03T10:54:07.160Z,41.49
2018-01-03T10:56:36.275Z,37.50
2018-01-03T10:59:05.668Z,37.37
2018-01-03T11:01:34.948Z,37.85
2018-01-03T11:04:05.395Z,38.74
2018-01-03T11:06:34.499Z,36.00
2018-01-03T11:09:04.260Z,34.48
2018-01-03T11:11:33.522Z,34.67
2018-01-03T11:14:05.668Z,33.53
2018-01-03T11:16:35.104Z,33.49
2018-01-03T11:19:04.422Z,32.98
2018-01-03T11:21:33.533Z,33.59
2018-01-03T11:24:05.619Z,32.87
2018-01-03T11:26:35.041Z,32.85
2018-01-03T11:29:04.471Z,32.82
2018-01-03T11:31:34.820Z,33.79
2018-01-03T11:34:04.894Z,33.65
2018-01-03T11:36:34.928Z,34.62
2018-01-03T11:39:05.232Z,35.17
2018-01-03T11:41:35.155Z,35.13
2018-01-03T11:44:05.482Z,34.70
2018-01-03T11:46:35.020Z,34.22
2018-01-03T11:49:04.548Z,36.05
2018-01-03T11:51:33.645Z,36.76
2018-01-03T11:54:04.985Z,33.71
2018-01-03T11:56:34.067Z,34.15
2018-01-03T11:59:07.157Z,36.17
2018-01-03T12:01:36.570Z,37.52
2018-01-03T12:04:06.707Z,40.56
2018-01-03T12:06:37.399Z,41.96
2018-01-03T12:09:06.843Z,43.03
2018-01-03T12:11:35.953Z,44.93
2018-01-03T12:14:09.035Z,46.10
2018-01-03T12:16:38.132Z,46.24
2018-01-03T12:19:07.223Z,46.60
2018-01-03T12:21:36.640Z,47.92
2018-01-03T12:24:08.050Z,48.11
2018-01-03T12:26:37.149Z,46.88
2018-01-03T12:29:06.541Z,46.68
2018-01-03T12:31:36.576Z,46.83
2018-01-03T12:34:08.907Z,47.09
2018-01-03T12:36:38.023Z,46.67
2018-01-03T12:39:07.974Z,45.69
2018-01-03T12:41:38.495Z,45.65
2018-01-03T12:44:10.737Z,45.84
2018-01-03T12:46:40.136Z,45.41
2018-01-03T12:49:09.530Z,44.97
2018-01-03T12:51:38.634Z,45.38
2018-01-03T12:54:12.371Z,45.30
2018-01-03T12:56:41.471Z,45.43
2018-01-03T12:59:11.031Z,45.42
2018-01-03T13:01:40.141Z,46.22
2018-01-03T13:04:10.438Z,46.72
2018-01-03T13:06:39.555Z,47.23
2018-01-03T13:09:08.666Z,48.29
2018-01-03T13:11:37.774Z,50.30
2018-01-03T13:14:08.605Z,51.86
2018-01-03T13:16:38.018Z,52.80
2018-01-03T13:19:07.211Z,52.20
2018-01-03T13:21:37.743Z,52.01
2018-01-03T13:24:08.772Z,51.75
2018-01-03T13:26:39.003Z,51.57
2018-01-03T13:29:08.126Z,52.01
2018-01-03T13:31:37.349Z,51.32
2018-01-03T13:34:07.004Z,51.49
2018-01-03T13:36:36.149Z,51.72
2018-01-03T13:39:06.015Z,51.86
2018-01-03T13:41:35.166Z,51.79
2018-01-03T13:44:06.107Z,51.24
2018-01-03T13:46:35.230Z,51.66
2018-01-03T13:49:04.760Z,52.15
2018-01-03T13:51:34.059Z,53.10
2018-01-03T13:54:05.699Z,53.86
2018-01-03T13:56:34.809Z,55.11
2018-01-03T13:59:04.587Z,56.22
2018-01-03T14:01:33.706Z,57.15
2018-01-03T14:04:05.529Z,57.92
2018-01-03T14:06:34.655Z,59.54
2018-01-03T14:09:04.381Z,60.69
2018-01-03T14:11:33.495Z,61.39
2018-01-03T14:14:04.494Z,61.69
2018-01-03T14:16:34.218Z,62.22
2018-01-03T14:19:04.132Z,61.46
2018-01-03T14:21:33.243Z,61.95
2018-01-03T14:24:05.664Z,61.61
2018-01-03T14:26:36.857Z,61.64
2018-01-03T14:29:06.256Z,62.00
2018-01-03T14:31:36.073Z,61.88
2018-01-03T14:34:10.933Z,62.31
2018-01-03T14:36:40.057Z,62.75
2018-01-03T14:39:09.458Z,63.69
2018-01-03T14:41:38.579Z,64.30
2018-01-03T14:44:09.251Z,64.81
2018-01-03T14:46:38.400Z,65.19
2018-01-03T14:49:08.902Z,65.39
2018-01-03T14:51:39.055Z,65.53
2018-01-03T14:56:38.153Z,65.57
2018-01-03T14:59:07.593Z,65.33
2018-01-03T15:01:36.830Z,65.39
2018-01-03T15:04:10.964Z,65.28
2018-01-03T15:06:40.319Z,65.41
2018-01-03T15:09:09.774Z,65.24
2018-01-03T15:11:38.939Z,65.14
2018-01-03T15:14:09.870Z,64.98
2018-01-03T15:16:38.979Z,65.42
2018-01-03T15:19:08.568Z,65.66
2018-01-03T15:21:38.631Z,66.02
2018-01-03T15:24:09.221Z,66.51
2018-01-03T15:26:40.052Z,67.09
2018-01-03T15:29:09.413Z,67.33
2018-01-03T15:31:38.611Z,67.49
2018-01-03T15:34:08.553Z,67.61
2018-01-03T15:36:38.005Z,67.40
2018-01-03T15:39:07.165Z,67.10
2018-01-03T15:41:37.699Z,67.25
2018-01-03T15:44:07.958Z,66.99
2018-01-03T15:46:38.262Z,66.96
2018-01-03T15:49:07.439Z,66.62
2018-01-03T15:51:37.344Z,66.64
2018-01-03T15:54:07.655Z,66.12
2018-01-03T15:56:37.280Z,65.91
2018-01-03T15:59:06.472Z,65.60
2018-01-03T16:01:35.610Z,65.48
2018-01-03T16:04:06.356Z,65.49
2018-01-03T16:06:37.120Z,65.33
2018-01-03T16:10:35.822Z,65.27
2018-01-03T16:13:04.984Z,64.94
2018-01-03T16:15:34.480Z,64.98
2018-01-03T16:18:05.461Z,65.22
2018-01-03T16:21:05.619Z,65.13
2018-01-03T16:23:35.650Z,65.11
2018-01-03T16:26:07.712Z,64.83
2018-01-03T16:28:37.548Z,64.33
2018-01-03T16:31:06.990Z,64.21
2018-01-03T16:33:36.206Z,63.85
2018-01-03T16:36:08.394Z,63.96
2018-01-03T16:38:37.577Z,64.07
2018-01-03T16:41:07.024Z,63.65
2018-01-03T16:43:36.747Z,63.54
2018-01-03T16:46:13.431Z,63.32
2018-01-03T16:48:42.573Z,63.36
2018-01-03T16:51:11.855Z,63.04
2018-01-03T16:53:41.270Z,62.77
2018-01-03T16:56:11.246Z,62.90
2018-01-03T16:58:42.057Z,62.52
2018-01-03T17:01:11.271Z,62.60
2018-01-03T17:03:41.112Z,62.43
2018-01-03T17:06:10.355Z,62.37
2018-01-03T17:08:39.583Z,61.96
2018-01-03T17:11:09.032Z,61.92
2018-01-03T17:13:39.142Z,62.14
2018-01-03T17:16:12.365Z,62.64
2018-01-03T17:18:41.575Z,64.61
2018-01-03T17:21:16.300Z,66.79
2018-01-03T17:23:45.695Z,68.48
2018-01-03T17:26:15.436Z,70.50
2018-01-03T17:28:45.677Z,71.10
2018-01-03T17:31:14.764Z,73.05
2018-01-03T17:33:43.872Z,75.72
2018-01-03T17:36:14.717Z,77.59
2018-01-03T17:38:43.897Z,77.60
2018-01-03T17:41:13.276Z,78.06
2018-01-03T17:43:42.392Z,77.96
2018-01-03T17:46:12.296Z,78.37
2018-01-03T17:48:41.402Z,79.08
2018-01-03T17:51:11.169Z,78.97
2018-01-03T17:53:41.990Z,79.34
2018-01-03T17:56:17.401Z,79.67
2018-01-03T17:58:46.806Z,79.75
2018-01-03T18:01:16.009Z,79.28
2018-01-03T18:03:45.567Z,78.46
2018-01-03T18:06:16.732Z,78.25
2018-01-03T18:08:45.897Z,77.02
2018-01-03T18:11:15.895Z,76.88
2018-01-03T18:13:45.154Z,75.48
2018-01-03T18:16:15.259Z,75.93
2018-01-03T18:18:45.309Z,75.21
2018-01-03T18:21:14.747Z,75.21
2018-01-03T18:23:43.931Z,74.64
2018-01-03T18:26:14.289Z,74.04
2018-01-03T18:28:45.402Z,73.62
2018-01-03T18:31:14.490Z,73.98
2018-01-03T18:33:43.991Z,73.08
2018-01-03T18:36:15.379Z,72.78
2018-01-03T18:38:44.561Z,72.68
2018-01-03T18:41:13.687Z,72.93
2018-01-03T18:43:42.827Z,72.67
2018-01-03T18:46:12.697Z,72.50
2018-01-03T18:48:41.803Z,72.27
2018-01-03T18:51:11.205Z,72.46
2018-01-03T18:53:40.352Z,72.15
2018-01-03T18:56:16.456Z,71.94
2018-01-03T18:58:47.124Z,72.04
2018-01-03T19:01:16.194Z,72.40
2018-01-03T19:03:45.916Z,72.09
2018-01-03T19:06:17.571Z,71.94
2018-01-03T19:08:46.987Z,72.41
2018-01-03T19:11:16.158Z,72.17
2018-01-03T19:13:45.267Z,71.81
2018-01-03T19:16:16.961Z,71.77
2018-01-03T19:18:46.446Z,72.17
2018-01-03T19:21:15.568Z,72.41
2018-01-03T19:23:44.696Z,72.28
2018-01-03T19:26:14.255Z,71.64
2018-01-03T19:28:43.665Z,71.10
2018-01-03T19:31:12.935Z,70.73
2018-01-03T19:33:42.029Z,70.51
2018-01-03T19:36:17.143Z,70.33
2018-01-03T19:38:46.554Z,69.39
2018-01-03T19:41:15.710Z,69.29
2018-01-03T19:43:46.267Z,68.83
2018-01-03T19:46:20.381Z,68.65
2018-01-03T19:48:49.499Z,68.93
2018-01-03T19:51:19.620Z,68.74
2018-01-03T19:53:49.875Z,68.59
2018-01-03T19:56:21.762Z,68.66
2018-01-03T19:58:50.928Z,68.24
2018-01-03T20:01:20.360Z,68.31
2018-01-03T20:03:49.498Z,68.73
2018-01-03T20:06:20.718Z,68.41
2018-01-03T20:08:50.161Z,68.11
2018-01-03T20:11:19.576Z,67.15
2018-01-03T20:13:48.709Z,65.91
2018-01-03T20:16:20.700Z,64.68
2018-01-03T20:18:50.195Z,63.97
2018-01-03T20:21:19.357Z,64.08
2018-01-03T20:23:49.174Z,64.12
2018-01-03T20:26:20.750Z,64.14
2018-01-03T20:28:50.218Z,64.28
2018-01-03T20:31:19.361Z,64.56
2018-01-03T20:33:48.475Z,64.71
2018-01-03T20:36:18.521Z,64.80
2018-01-03T20:38:48.973Z,65.28
2018-01-03T20:41:18.069Z,66.42
2018-01-03T20:43:47.233Z,66.73
2018-01-03T20:46:17.593Z,66.71
2018-01-03T20:48:46.890Z,67.00
2018-01-03T20:51:16.031Z,66.85
2018-01-03T20:53:45.201Z,66.71
2018-01-03T20:56:16.211Z,66.56
2018-01-03T20:58:45.382Z,65.80
2018-01-03T21:01:14.730Z,64.67
2018-01-03T21:03:45.071Z,64.35
2018-01-03T21:06:15.831Z,63.52
2018-01-03T21:08:44.996Z,63.86
2018-01-03T21:11:14.433Z,63.90
2018-01-03T21:13:43.543Z,64.26
2018-01-03T21:16:18.380Z,64.71
2018-01-03T21:18:48.391Z,65.54
2018-01-03T21:21:18.032Z,66.31
2018-01-03T21:23:47.127Z,66.70
2018-01-03T21:26:19.781Z,66.47
2018-01-03T21:28:48.993Z,66.15
2018-01-03T21:31:18.437Z,66.08
2018-01-03T21:33:48.305Z,66.58
2018-01-03T21:36:20.324Z,67.12
2018-01-03T21:38:50.324Z,67.40
2018-01-03T21:41:19.777Z,67.83
2018-01-03T21:43:49.160Z,67.94
2018-01-03T21:46:20.176Z,68.09
2018-01-03T21:48:49.334Z,67.64
2018-01-03T21:51:19.851Z,67.22
2018-01-03T21:53:49.024Z,67.24
2018-01-03T21:56:19.503Z,66.82
2018-01-03T21:58:48.757Z,66.58
2018-01-03T22:01:18.166Z,66.34
2018-01-03T22:03:47.362Z,66.29
2018-01-03T22:06:17.225Z,66.19
2018-01-03T22:08:46.390Z,66.32
2018-01-03T22:11:16.106Z,66.26
2018-01-03T22:13:45.199Z,66.45
2018-01-03T22:16:15.989Z,66.80
2018-01-03T22:18:46.053Z,66.86
2018-01-03T22:21:15.163Z,66.81
2018-01-03T22:23:45.242Z,66.96
2018-01-03T22:26:16.938Z,67.22
2018-01-03T22:28:46.370Z,67.45
2018-01-03T22:31:15.675Z,67.59
2018-01-03T22:33:45.554Z,67.75
2018-01-03T22:36:18.083Z,68.03
2018-01-03T22:38:47.553Z,68.14
2018-01-03T22:41:16.729Z,68.20
2018-01-03T22:43:46.226Z,68.26
2018-01-03T22:46:15.403Z,68.36
2018-01-03T22:48:45.739Z,68.93
2018-01-03T22:51:15.948Z,69.45
2018-01-03T22:53:45.085Z,69.99
2018-01-03T22:56:17.673Z,70.56
2018-01-03T22:58:47.136Z,71.23
2018-01-03T23:01:16.461Z,71.41
2018-01-03T23:03:45.728Z,71.46
2018-01-03T23:06:17.773Z,71.62
2018-01-03T23:08:47.240Z,71.66
2018-01-03T23:11:16.365Z,71.89
2018-01-03T23:13:45.515Z,71.95
2018-01-03T23:16:15.039Z,71.86
2018-01-03T23:18:44.492Z,71.68
2018-01-03T23:21:13.689Z,71.65
2018-01-03T23:23:43.921Z,71.65
2018-01-03T23:26:15.156Z,71.30
2018-01-03T23:28:44.247Z,70.95
2018-01-03T23:31:13.390Z,71.02
2018-01-03T23:33:42.805Z,70.98
2018-01-03T23:36:13.344Z,70.82
2018-01-03T23:38:43.005Z,70.66
2018-01-03T23:41:12.423Z,70.10
2018-01-03T23:43:42.675Z,69.95
2018-01-03T23:46:15.167Z,69.53
2018-01-03T23:48:45.929Z,69.38
2018-01-03T23:51:15.361Z,69.49
2018-01-03T23:53:45.649Z,69.31
2018-01-03T23:56:16.795Z,69.44
2018-01-03T23:58:47.324Z,69.47
